Terminal Aerodrome Forecast
Issued by NWS

Home | Current Version | Previous Version | Text Only | Print | Product List | Glossary Off
Versions: 1 2 3 4 5 6 7 8 9 10 11 12 13 14 15 16

991
FTUS43 KFGF 222320
TAFBJI
TAF
KBJI 222320Z 2300/2324 34008KT P6SM OVC040
      TEMPO 2300/2302 -SHRA OVC025
     FM230300 32006KT P6SM VCSH OVC025
     FM230600 34006KT P6SM OVC015
     FM232000 02010KT P6SM OVC035=

USA.gov is the U.S. government's official web portal to all federal, state and local government web resources and services.